createdAt,value
2023-05-15T00:01:07.347Z,100427.72
2023-05-15T00:04:09.668Z,100426.19
2023-05-15T00:07:11.956Z,100428.00
2023-05-15T00:10:14.415Z,100424.66
2023-05-15T00:13:21.398Z,100420.78
2023-05-15T00:16:24.169Z,100417.28
2023-05-15T00:19:26.471Z,100416.03
2023-05-15T00:22:28.969Z,100388.09
2023-05-15T00:25:31.381Z,100395.34
2023-05-15T00:28:33.751Z,100393.44
2023-05-15T00:31:36.260Z,100388.13
2023-05-15T00:34:38.585Z,100388.53
2023-05-15T00:37:41.112Z,100380.91
2023-05-15T00:40:44.205Z,100381.72
2023-05-15T00:43:52.233Z,100390.47
2023-05-15T00:46:55.392Z,100381.72
2023-05-15T00:49:57.985Z,100379.41
2023-05-15T00:53:01.877Z,100382.25
2023-05-15T00:56:05.957Z,100370.03
2023-05-15T00:59:08.564Z,100365.16
2023-05-15T01:02:11.231Z,100369.25
2023-05-15T01:05:14.782Z,100360.69
2023-05-15T01:08:22.048Z,100357.97
2023-05-15T01:11:36.359Z,100362.13
2023-05-15T01:14:39.493Z,100358.75
2023-05-15T01:17:42.186Z,100352.09
2023-05-15T01:21:10.915Z,100337.91
2023-05-15T01:24:34.544Z,100346.63
2023-05-15T01:27:44.246Z,100335.09
2023-05-15T01:30:48.696Z,100332.63
2023-05-15T01:33:55.175Z,100331.81
2023-05-15T01:36:58.306Z,100324.34
2023-05-15T01:40:08.301Z,100329.59
2023-05-15T01:43:13.002Z,100325.44
2023-05-15T01:46:19.361Z,100328.78
2023-05-15T01:49:28.061Z,100327.19
2023-05-15T01:52:35.018Z,100318.31
2023-05-15T01:55:39.589Z,100313.16
2023-05-15T01:58:42.125Z,100310.84
2023-05-15T02:01:45.756Z,100307.47
2023-05-15T02:04:48.267Z,100303.00
2023-05-15T02:07:50.853Z,100300.09
2023-05-15T02:10:53.486Z,100292.50
2023-05-15T02:13:57.956Z,100286.66
2023-05-15T02:17:00.339Z,100286.91
2023-05-15T02:20:03.410Z,100277.94
2023-05-15T02:23:05.802Z,100275.41
2023-05-15T02:26:17.068Z,100272.72
2023-05-15T02:29:21.613Z,100264.22
2023-05-15T02:32:49.564Z,100261.34
2023-05-15T02:35:52.633Z,100251.44
2023-05-15T02:38:56.133Z,100248.50
2023-05-15T02:42:00.414Z,100232.47
2023-05-15T02:45:03.894Z,100238.53
2023-05-15T02:48:06.614Z,100230.00
2023-05-15T02:51:09.414Z,100233.88
2023-05-15T02:54:12.492Z,100222.19
2023-05-15T02:57:14.856Z,100214.38
2023-05-15T03:00:17.724Z,100201.72
2023-05-15T03:03:19.991Z,100191.59
2023-05-15T03:06:22.508Z,100189.66
2023-05-15T03:09:25.633Z,100176.06
2023-05-15T03:12:27.962Z,100188.41
2023-05-15T03:15:30.449Z,100169.88
2023-05-15T03:18:32.908Z,100181.31
2023-05-15T03:21:35.344Z,100175.69
2023-05-15T03:24:39.006Z,100189.53
2023-05-15T03:27:41.333Z,100185.16
2023-05-15T03:30:46.879Z,100189.81
2023-05-15T03:33:50.785Z,100188.00
2023-05-15T03:36:53.160Z,100192.31
2023-05-15T03:39:55.696Z,100185.06
2023-05-15T03:42:58.848Z,100176.22
2023-05-15T03:46:01.401Z,100184.22
2023-05-15T03:49:04.353Z,100184.84
2023-05-15T03:52:09.594Z,100180.91
2023-05-15T03:55:12.245Z,100159.19
2023-05-15T03:58:15.442Z,100176.34
2023-05-15T04:01:17.878Z,100171.06
2023-05-15T04:04:20.145Z,100162.69
2023-05-15T04:07:22.492Z,100150.91
2023-05-15T04:10:24.963Z,100150.31
2023-05-15T04:13:27.559Z,100149.22
2023-05-15T04:16:30.048Z,100140.84
2023-05-15T04:19:32.553Z,100143.28
2023-05-15T04:22:34.854Z,100153.19
2023-05-15T04:25:37.832Z,100153.03
2023-05-15T04:28:41.536Z,100145.13
2023-05-15T04:31:49.177Z,100155.38
2023-05-15T04:34:51.508Z,100152.97
2023-05-15T04:37:53.850Z,100139.59
2023-05-15T04:40:56.385Z,100135.97
2023-05-15T04:43:58.740Z,100132.25
2023-05-15T04:47:01.212Z,100123.59
2023-05-15T04:50:03.737Z,100129.38
2023-05-15T04:53:06.632Z,100125.94
2023-05-15T04:56:08.957Z,100116.38
2023-05-15T04:59:11.338Z,100120.47
2023-05-15T05:02:13.670Z,100122.25
2023-05-15T05:05:16.641Z,100116.50
2023-05-15T05:08:19.165Z,100115.19
2023-05-15T05:11:21.853Z,100114.41
2023-05-15T05:14:24.374Z,100111.00
2023-05-15T05:17:26.944Z,100111.53
2023-05-15T05:20:29.275Z,100113.78
2023-05-15T05:23:32.158Z,100105.41
2023-05-15T05:26:34.761Z,100105.41
2023-05-15T05:29:37.925Z,100115.22
2023-05-15T05:32:40.851Z,100111.19
2023-05-15T05:35:43.567Z,100112.31
2023-05-15T05:38:46.247Z,100106.69
2023-05-15T05:41:48.720Z,100096.13
2023-05-15T05:44:51.403Z,100094.53
2023-05-15T05:47:54.045Z,100093.25
2023-05-15T05:50:56.644Z,100092.78
2023-05-15T05:53:58.987Z,100098.94
2023-05-15T05:57:01.783Z,100100.16
2023-05-15T06:00:14.381Z,100104.06
2023-05-15T06:03:17.026Z,100111.44
2023-05-15T06:06:19.691Z,100111.63
2023-05-15T06:09:21.984Z,100117.72
2023-05-15T06:12:24.583Z,100108.13
2023-05-15T06:15:27.138Z,100117.31
2023-05-15T06:18:29.761Z,100119.63
2023-05-15T06:21:32.748Z,100114.09
2023-05-15T06:24:35.097Z,100109.72
2023-05-15T06:27:37.763Z,100112.03
2023-05-15T06:30:40.179Z,100120.47
2023-05-15T06:33:42.774Z,100124.16
2023-05-15T06:36:45.224Z,100124.22
2023-05-15T06:39:47.658Z,100113.09
2023-05-15T06:42:50.035Z,100111.78
2023-05-15T06:45:53.833Z,100104.03
2023-05-15T06:48:56.328Z,100098.19
2023-05-15T06:51:58.830Z,100103.88
2023-05-15T06:55:01.466Z,100100.97
2023-05-15T06:58:04.638Z,100096.91
2023-05-15T07:01:08.367Z,100092.00
2023-05-15T07:04:13.840Z,100101.44
2023-05-15T07:07:16.215Z,100108.53
2023-05-15T07:10:20.182Z,100102.22
2023-05-15T07:13:22.592Z,100106.44
2023-05-15T07:16:25.034Z,100103.53
2023-05-15T07:19:27.542Z,100115.06
2023-05-15T07:22:31.457Z,100107.41
2023-05-15T07:25:35.074Z,100104.69
2023-05-15T07:28:37.473Z,100101.22
2023-05-15T07:31:40.734Z,100094.59
2023-05-15T07:34:43.334Z,100087.66
2023-05-15T07:37:46.993Z,100095.59
2023-05-15T07:40:49.740Z,100082.66
2023-05-15T07:43:52.367Z,100073.13
2023-05-15T07:46:57.190Z,100079.59
2023-05-15T07:50:00.081Z,100066.97
2023-05-15T07:53:02.757Z,100066.78
2023-05-15T07:56:05.696Z,100063.25
2023-05-15T07:59:08.220Z,100059.00
2023-05-15T08:02:10.928Z,100054.47
2023-05-15T08:05:13.642Z,100032.66
2023-05-15T08:08:16.070Z,100025.97
2023-05-15T08:11:19.535Z,100014.72
2023-05-15T08:14:22.390Z,100008.19
2023-05-15T08:17:26.484Z,100007.97
2023-05-15T08:20:29.092Z,100007.47
2023-05-15T08:23:31.611Z,99999.78
2023-05-15T08:26:34.294Z,99992.47
2023-05-15T08:29:39.454Z,99989.00
2023-05-15T08:32:46.019Z,99982.50
2023-05-15T08:35:48.602Z,99978.31
2023-05-15T08:38:51.007Z,99981.16
2023-05-15T08:42:04.069Z,99974.63
2023-05-15T08:45:08.742Z,99972.44
2023-05-15T08:48:20.713Z,99969.78
2023-05-15T08:51:24.624Z,99961.50
2023-05-15T08:54:27.066Z,99976.38
2023-05-15T08:57:29.585Z,99967.28
2023-05-15T09:00:32.795Z,99978.91
2023-05-15T09:03:35.350Z,99980.53
2023-05-15T09:06:38.322Z,99967.47
2023-05-15T09:09:41.981Z,99955.25
2023-05-15T09:12:45.968Z,99945.69
2023-05-15T09:15:48.474Z,99948.03
2023-05-15T09:18:51.113Z,99951.47
2023-05-15T09:21:53.678Z,99929.94
2023-05-15T09:24:58.293Z,99928.06
2023-05-15T09:28:01.377Z,99923.41
2023-05-15T09:31:05.650Z,99921.25
2023-05-15T09:34:09.723Z,99922.00
2023-05-15T09:37:28.152Z,99916.59
2023-05-15T09:40:31.611Z,99926.13
2023-05-15T09:43:41.364Z,99934.53
2023-05-15T09:46:43.823Z,99926.50
2023-05-15T09:49:47.280Z,99925.91
2023-05-15T09:52:50.662Z,99913.97
2023-05-15T09:55:54.566Z,99901.09
2023-05-15T09:58:59.147Z,99900.72
2023-05-15T10:02:01.901Z,99885.22
2023-05-15T10:05:05.054Z,99886.53
2023-05-15T10:08:07.605Z,99890.97
2023-05-15T10:11:10.078Z,99882.28
2023-05-15T10:14:14.337Z,99890.44
2023-05-15T10:17:16.628Z,99885.75
2023-05-15T10:20:20.624Z,99872.47
2023-05-15T10:23:23.107Z,99886.22
2023-05-15T10:26:39.640Z,99872.38
2023-05-15T10:29:42.329Z,99872.81
2023-05-15T10:32:45.810Z,99879.69
2023-05-15T10:35:49.253Z,99858.16
2023-05-15T10:38:52.549Z,99865.22
2023-05-15T10:41:55.363Z,99856.03
2023-05-15T10:45:00.396Z,99858.56
2023-05-15T10:48:03.666Z,99861.72
2023-05-15T10:51:06.076Z,99843.50
2023-05-15T10:54:10.827Z,99858.84
2023-05-15T10:57:15.203Z,99844.56
2023-05-15T11:00:23.599Z,99841.09
2023-05-15T11:03:48.777Z,99846.22
2023-05-15T11:07:12.481Z,99832.28
2023-05-15T11:10:30.102Z,99829.06
2023-05-15T11:14:20.573Z,99838.34
2023-05-15T11:17:26.588Z,99839.41
2023-05-15T11:20:37.091Z,99833.81
2023-05-15T11:23:41.397Z,99835.97
2023-05-15T11:26:43.755Z,99825.09
2023-05-15T11:30:05.050Z,99820.75
2023-05-15T11:33:11.518Z,99826.09
2023-05-15T11:36:16.049Z,99798.28
2023-05-15T11:39:18.515Z,99799.81
2023-05-15T11:42:20.872Z,99798.16
2023-05-15T11:45:23.365Z,99793.50
2023-05-15T11:48:28.376Z,99787.13
2023-05-15T11:51:30.911Z,99787.53
2023-05-15T11:54:33.260Z,99785.94
2023-05-15T11:57:35.657Z,99778.44
2023-05-15T12:00:38.114Z,99786.03
2023-05-15T12:03:40.596Z,99774.38
2023-05-15T12:06:44.772Z,99780.16
2023-05-15T12:09:52.712Z,99779.28
2023-05-15T12:12:55.088Z,99779.75
2023-05-15T12:15:57.943Z,99766.00
2023-05-15T12:19:00.594Z,99762.69
2023-05-15T12:22:06.523Z,99762.47
2023-05-15T12:25:11.488Z,99763.28
2023-05-15T12:28:14.653Z,99769.34
2023-05-15T12:31:17.625Z,99756.38
2023-05-15T12:34:21.009Z,99756.16
2023-05-15T12:37:23.642Z,99741.72
2023-05-15T12:40:26.721Z,99756.00
2023-05-15T12:43:29.327Z,99744.25
2023-05-15T12:46:32.806Z,99747.16
2023-05-15T12:49:38.148Z,99742.81
2023-05-15T12:52:41.345Z,99738.16
2023-05-15T12:55:47.207Z,99735.34
2023-05-15T12:58:49.624Z,99727.75
2023-05-15T13:01:52.041Z,99727.16
2023-05-15T13:04:54.467Z,99686.69
2023-05-15T13:07:58.978Z,99704.97
2023-05-15T13:11:01.423Z,99703.44
2023-05-15T13:14:17.634Z,99679.25
2023-05-15T13:17:22.541Z,99690.59
2023-05-15T13:20:25.203Z,99680.41
2023-05-15T13:23:27.801Z,99670.94
2023-05-15T13:26:30.148Z,99656.88
2023-05-15T13:29:32.405Z,99656.75
2023-05-15T13:32:34.824Z,99653.44
2023-05-15T13:35:37.774Z,99652.66
2023-05-15T13:38:40.492Z,99657.94
2023-05-15T13:41:43.259Z,99647.84
2023-05-15T13:44:45.664Z,99644.75
2023-05-15T13:47:48.084Z,99642.63
2023-05-15T13:50:50.472Z,99646.66
2023-05-15T13:53:52.979Z,99637.75
2023-05-15T13:56:55.599Z,99635.72
2023-05-15T13:59:57.953Z,99633.69
2023-05-15T14:03:00.411Z,99627.09
2023-05-15T14:06:02.877Z,99633.06
2023-05-15T14:09:07.458Z,99631.59
2023-05-15T14:12:10.186Z,99621.59
2023-05-15T14:15:12.655Z,99619.97
2023-05-15T14:18:15.116Z,99617.88
2023-05-15T14:21:17.583Z,99611.25
2023-05-15T14:24:19.918Z,99612.31
2023-05-15T14:27:22.360Z,99606.69
2023-05-15T14:30:24.919Z,99608.63
2023-05-15T14:33:27.390Z,99605.22
2023-05-15T14:36:30.409Z,99596.78
2023-05-15T14:39:33.048Z,99596.72
2023-05-15T14:42:35.705Z,99598.63
2023-05-15T14:45:38.093Z,99595.75
2023-05-15T14:48:40.628Z,99594.94
2023-05-15T14:51:43.031Z,99581.66
2023-05-15T14:54:51.221Z,99595.28
2023-05-15T14:57:59.606Z,99589.81
2023-05-15T15:01:02.038Z,99576.06
2023-05-15T15:04:04.499Z,99580.88
2023-05-15T15:07:11.599Z,99579.75
2023-05-15T15:10:14.142Z,99571.81
2023-05-15T15:13:17.152Z,99572.81
2023-05-15T15:16:19.727Z,99559.53
2023-05-15T15:19:22.348Z,99563.09
2023-05-15T15:22:24.885Z,99567.47
2023-05-15T15:25:27.468Z,99554.28
2023-05-15T15:28:33.694Z,99551.53
2023-05-15T15:31:36.254Z,99550.94
2023-05-15T15:34:38.698Z,99550.09
2023-05-15T15:37:41.048Z,99548.47
2023-05-15T15:40:43.382Z,99537.00
2023-05-15T15:43:45.830Z,99537.41
2023-05-15T15:46:48.162Z,99539.38
2023-05-15T15:49:54.152Z,99538.22
2023-05-15T15:52:56.562Z,99526.84
2023-05-15T15:55:58.942Z,99534.66
2023-05-15T15:59:01.402Z,99524.53
2023-05-15T16:02:06.026Z,99503.69
2023-05-15T16:05:09.259Z,99512.38
2023-05-15T16:08:11.620Z,99508.50
2023-05-15T16:11:14.142Z,99502.88
2023-05-15T16:14:16.644Z,99511.97
2023-05-15T16:17:19.330Z,99508.72
2023-05-15T16:20:21.999Z,99518.53
2023-05-15T16:23:24.390Z,99510.50
2023-05-15T16:26:26.864Z,99506.28
2023-05-15T16:29:29.427Z,99511.97
2023-05-15T16:32:32.014Z,99499.41
2023-05-15T16:35:36.790Z,99509.09
2023-05-15T16:38:39.234Z,99477.78
2023-05-15T16:41:41.647Z,99499.94
2023-05-15T16:44:44.195Z,99494.34
2023-05-15T16:47:46.739Z,99483.03
2023-05-15T16:50:51.270Z,99496.28
2023-05-15T16:53:56.228Z,99492.56
2023-05-15T16:56:58.729Z,99483.41
2023-05-15T17:00:01.046Z,99478.50
2023-05-15T17:03:04.463Z,99465.16
2023-05-15T17:06:08.262Z,99471.75
2023-05-15T17:09:10.774Z,99431.63
2023-05-15T17:12:13.233Z,99483.63
2023-05-15T17:15:15.616Z,99471.88
2023-05-15T17:18:18.026Z,99478.47
2023-05-15T17:21:20.414Z,99470.25
2023-05-15T17:24:22.718Z,99467.44
2023-05-15T17:27:25.158Z,99466.28
2023-05-15T17:30:27.766Z,99468.50
2023-05-15T17:33:30.262Z,99449.06
2023-05-15T17:36:33.814Z,99456.47
2023-05-15T17:39:36.460Z,99460.16
2023-05-15T17:42:39.249Z,99461.38
2023-05-15T17:45:41.817Z,99448.56
2023-05-15T17:48:44.230Z,99456.59
2023-05-15T17:51:46.639Z,99463.81
2023-05-15T17:54:49.129Z,99453.19
2023-05-15T17:57:51.651Z,99460.94
2023-05-15T18:00:55.361Z,99467.22
2023-05-15T18:03:57.757Z,99463.66
2023-05-15T18:07:00.067Z,99456.13
2023-05-15T18:10:02.443Z,99460.44
2023-05-15T18:13:04.738Z,99460.16
2023-05-15T18:16:07.706Z,99467.84
2023-05-15T18:19:10.678Z,99458.88
2023-05-15T18:22:13.201Z,99454.38
2023-05-15T18:25:15.757Z,99455.78
2023-05-15T18:28:18.236Z,99463.53
2023-05-15T18:31:21.276Z,99440.00
2023-05-15T18:34:24.230Z,99463.97
2023-05-15T18:37:26.766Z,99459.78
2023-05-15T18:40:29.334Z,99468.84
2023-05-15T18:43:31.817Z,99462.53
2023-05-15T18:46:34.444Z,99468.34
2023-05-15T18:49:36.923Z,99476.03
2023-05-15T18:52:39.216Z,99479.41
2023-05-15T18:55:41.630Z,99486.00
2023-05-15T18:58:45.956Z,99481.16
2023-05-15T19:01:49.541Z,99493.03
2023-05-15T19:04:51.970Z,99488.19
2023-05-15T19:07:54.468Z,99485.13
2023-05-15T19:11:00.648Z,99483.50
2023-05-15T19:14:03.986Z,99496.25
2023-05-15T19:17:06.617Z,99492.66
2023-05-15T19:20:09.578Z,99446.19
2023-05-15T19:23:12.943Z,99487.41
2023-05-15T19:26:15.313Z,99488.84
2023-05-15T19:29:17.791Z,99497.56
2023-05-15T19:32:20.296Z,99477.41
2023-05-15T19:35:22.901Z,99482.84
2023-05-15T19:38:25.601Z,99484.03
2023-05-15T19:41:28.021Z,99487.00
2023-05-15T19:44:30.550Z,99449.44
2023-05-15T19:47:33.083Z,99476.41
2023-05-15T19:50:35.537Z,99476.69
2023-05-15T19:53:37.901Z,99479.41
2023-05-15T19:56:40.524Z,99474.75
2023-05-15T19:59:43.003Z,99480.03
2023-05-15T20:02:45.379Z,99474.09
2023-05-15T20:05:47.859Z,99478.84
2023-05-15T20:08:50.337Z,99470.50
2023-05-15T20:11:52.931Z,99473.91
2023-05-15T20:14:55.415Z,99474.84
2023-05-15T20:17:58.472Z,99487.72
2023-05-15T20:21:00.955Z,99473.84
2023-05-15T20:24:03.425Z,99474.53
2023-05-15T20:27:06.703Z,99473.94
2023-05-15T20:30:09.638Z,99460.56
2023-05-15T20:33:11.959Z,99470.41
2023-05-15T20:36:16.766Z,99468.00
2023-05-15T20:39:22.212Z,99471.53
2023-05-15T20:42:25.537Z,99464.31
2023-05-15T20:45:28.160Z,99467.06
2023-05-15T20:48:30.585Z,99458.47
2023-05-15T20:51:33.454Z,99452.63
2023-05-15T20:54:36.069Z,99463.56
2023-05-15T20:57:38.602Z,99456.84
2023-05-15T21:00:40.978Z,99465.19
2023-05-15T21:03:44.003Z,99453.94
2023-05-15T21:06:46.795Z,99434.75
2023-05-15T21:09:49.095Z,99448.13
2023-05-15T21:12:51.671Z,99451.00
2023-05-15T21:15:54.003Z,99444.72
2023-05-15T21:18:56.499Z,99450.72
2023-05-15T21:21:58.921Z,99383.16
2023-05-15T21:25:01.264Z,99438.00
2023-05-15T21:28:03.701Z,99446.66
2023-05-15T21:31:07.448Z,99444.38
2023-05-15T21:34:09.774Z,99445.53
2023-05-15T21:37:12.375Z,99439.72
2023-05-15T21:40:15.196Z,99424.94
2023-05-15T21:43:17.626Z,99418.84
2023-05-15T21:46:20.323Z,99428.66
2023-05-15T21:49:22.674Z,99432.34
2023-05-15T21:52:25.014Z,99435.44
2023-05-15T21:55:27.512Z,99414.78
2023-05-15T21:58:30.088Z,99436.53
2023-05-15T22:01:32.668Z,99437.19
2023-05-15T22:04:35.354Z,99436.53
2023-05-15T22:07:37.931Z,99432.06
2023-05-15T22:10:41.352Z,99435.59
2023-05-15T22:13:43.839Z,99438.97
2023-05-15T22:16:46.278Z,99438.91
2023-05-15T22:19:48.878Z,99437.66
2023-05-15T22:22:51.339Z,99437.31
2023-05-15T22:25:54.316Z,99431.19
2023-05-15T22:28:56.914Z,99438.75
2023-05-15T22:31:59.353Z,99434.75
2023-05-15T22:35:02.492Z,99433.94
2023-05-15T22:38:07.128Z,99431.31
2023-05-15T22:41:09.499Z,99439.63
2023-05-15T22:44:12.150Z,99430.69
2023-05-15T22:47:14.528Z,99433.69
2023-05-15T22:50:16.869Z,99429.22
2023-05-15T22:53:19.310Z,99433.06
2023-05-15T22:56:21.806Z,99435.91
2023-05-15T22:59:24.155Z,99435.50
2023-05-15T23:02:27.208Z,99427.06
2023-05-15T23:05:29.711Z,99440.72
2023-05-15T23:08:32.711Z,99437.31
2023-05-15T23:11:35.506Z,99439.28
2023-05-15T23:14:37.943Z,99444.75
2023-05-15T23:17:40.677Z,99442.81
2023-05-15T23:20:43.218Z,99402.75
2023-05-15T23:23:46.123Z,99441.22
2023-05-15T23:26:48.544Z,99446.41
2023-05-15T23:29:50.938Z,99448.63
2023-05-15T23:32:55.307Z,99442.00
2023-05-15T23:35:57.884Z,99449.25
2023-05-15T23:39:00.316Z,99449.25
2023-05-15T23:42:02.712Z,99444.88
2023-05-15T23:45:05.672Z,99442.66
2023-05-15T23:48:08.059Z,99442.00
2023-05-15T23:51:11.061Z,99451.91
2023-05-15T23:54:13.512Z,99409.72
2023-05-15T23:57:15.829Z,99453.72
